Time;durP1;ratioP1;P1;durP2;ratioP2;P2;SDS_P1;SDS_P2;PMS_P1;PMS_P2;Temp;Humidity;BMP_temperature;BMP_pressure;BME280_temperature;BME280_humidity;BME280_pressure;Samples;Min_cycle;Max_cycle;Signal;HPM_P1;HPM_P2
2021/04/03 00:00:00;;;;;;;12.27;3.13;;;6.10;99.90;;;;;;4916101;29;20254;-76
2021/04/03 00:02:44;;;;;;;16.27;2.83;;;6.10;99.90;;;;;;4914590;29;20601;-77
2021/04/03 00:05:29;;;;;;;13.93;2.93;;;6.10;99.90;;;;;;4908171;29;20583;-77
2021/04/03 00:08:16;;;;;;;14.93;2.67;;;6.00;99.90;;;;;;4914595;29;20231;-77
2021/04/03 00:11:03;;;;;;;14.90;3.20;;;6.00;99.90;;;;;;4909870;29;20235;-77
2021/04/03 00:13:48;;;;;;;11.60;2.50;;;6.00;99.90;;;;;;4907797;29;20251;-77
2021/04/03 00:16:33;;;;;;;9.77;2.47;;;6.00;99.90;;;;;;4913502;29;20235;-77
2021/04/03 00:19:18;;;;;;;12.27;2.63;;;6.00;99.90;;;;;;4913755;29;20256;-77
2021/04/03 00:22:03;;;;;;;13.90;2.60;;;6.00;99.90;;;;;;4912316;29;20282;-76
2021/04/03 00:24:48;;;;;;;16.37;2.53;;;6.00;99.90;;;;;;4916918;29;20203;-77
2021/04/03 00:27:34;;;;;;;13.17;2.97;;;6.00;99.90;;;;;;4909228;29;20227;-77
2021/04/03 00:30:20;;;;;;;13.57;2.23;;;6.00;99.90;;;;;;4913036;29;20222;-77
2021/04/03 00:33:06;;;;;;;14.60;2.37;;;6.00;99.90;;;;;;4913532;29;20224;-77
2021/04/03 00:35:51;;;;;;;13.37;2.70;;;6.00;99.90;;;;;;4912865;29;20219;-77
2021/04/03 00:38:36;;;;;;;9.93;2.17;;;6.00;99.90;;;;;;4914911;29;20251;-77
2021/04/03 00:41:21;;;;;;;11.70;2.53;;;6.00;99.90;;;;;;4914148;29;20295;-77
2021/04/03 00:44:08;;;;;;;15.17;3.00;;;6.00;99.90;;;;;;4913825;29;20210;-77
2021/04/03 00:46:53;;;;;;;13.03;2.50;;;6.00;99.90;;;;;;4913720;29;20227;-77
2021/04/03 00:49:38;;;;;;;13.37;2.57;;;6.10;99.90;;;;;;4908932;29;20260;-77
2021/04/03 00:52:23;;;;;;;17.27;2.40;;;6.10;99.90;;;;;;4912087;29;21162;-77
2021/04/03 00:55:10;;;;;;;19.10;3.73;;;6.10;99.90;;;;;;4912339;29;20212;-77
2021/04/03 00:57:55;;;;;;;14.67;3.00;;;6.10;99.90;;;;;;4906468;29;20207;-77
2021/04/03 01:00:41;;;;;;;17.80;3.10;;;6.10;99.90;;;;;;4918532;29;20259;-77
2021/04/03 01:03:26;;;;;;;13.13;2.77;;;6.10;99.90;;;;;;4918939;29;20291;-77
2021/04/03 01:06:11;;;;;;;17.93;2.60;;;6.10;99.90;;;;;;4909939;29;20519;-77
2021/04/03 01:08:55;;;;;;;12.17;2.40;;;6.20;99.90;;;;;;4914944;29;20630;-77
2021/04/03 01:11:48;;;;;;;19.67;3.03;;;6.20;99.90;;;;;;4918309;29;20744;-77
2021/04/03 01:14:40;;;;;;;18.23;2.43;;;6.20;99.90;;;;;;4909333;29;20204;-77
2021/04/03 01:17:34;;;;;;;19.03;3.43;;;6.20;99.90;;;;;;4915601;29;20280;-77
2021/04/03 01:20:33;;;;;;;16.47;4.80;;;6.20;99.90;;;;;;4913453;29;20305;-77
2021/04/03 01:23:51;;;;;;;15.67;2.63;;;6.30;99.90;;;;;;4917310;29;20252;-77
2021/04/03 01:27:13;;;;;;;15.90;2.67;;;6.30;99.90;;;;;;4917915;29;20207;-77
2021/04/03 01:30:06;;;;;;;16.27;3.20;;;6.30;99.90;;;;;;4916264;29;20314;-77
2021/04/03 01:32:58;;;;;;;18.70;3.23;;;6.30;99.90;;;;;;4911848;29;20284;-77
2021/04/03 01:35:48;;;;;;;18.73;3.53;;;6.30;99.90;;;;;;4907424;29;20223;-77
2021/04/03 01:38:37;;;;;;;17.60;2.93;;;6.30;99.90;;;;;;4916218;29;20231;-77
2021/04/03 01:41:24;;;;;;;14.30;2.50;;;6.30;99.90;;;;;;4918051;29;20215;-79
2021/04/03 01:44:15;;;;;;;14.53;2.70;;;6.40;99.90;;;;;;4906250;29;20278;-76
2021/04/03 01:47:03;;;;;;;17.67;2.83;;;6.40;99.90;;;;;;4913468;29;20212;-78
2021/04/03 01:49:50;;;;;;;15.77;3.07;;;6.40;99.90;;;;;;4909756;29;20243;-76
2021/04/03 01:52:36;;;;;;;14.17;2.50;;;6.40;99.90;;;;;;4911728;29;20203;-77
2021/04/03 01:55:21;;;;;;;21.53;3.43;;;6.50;99.90;;;;;;4912254;29;20215;-77
2021/04/03 01:58:06;;;;;;;20.07;3.17;;;6.50;99.90;;;;;;4898424;29;20714;-76
2021/04/03 02:00:53;;;;;;;14.53;3.03;;;6.50;99.90;;;;;;4911715;29;20769;-76
2021/04/03 02:03:39;;;;;;;16.20;2.70;;;6.50;99.90;;;;;;4913138;29;20212;-78
2021/04/03 02:06:24;;;;;;;14.90;2.67;;;6.60;99.90;;;;;;4917016;29;20223;-76
2021/04/03 02:09:11;;;;;;;16.27;3.00;;;6.60;99.90;;;;;;4916738;29;20239;-77
2021/04/03 02:11:57;;;;;;;17.33;2.90;;;6.60;99.90;;;;;;4916649;29;20207;-76
2021/04/03 02:14:44;;;;;;;14.87;2.30;;;6.60;99.90;;;;;;4916617;29;20230;-76
2021/04/03 02:17:29;;;;;;;22.40;3.40;;;6.60;99.90;;;;;;4916030;29;20307;-78
2021/04/03 02:20:16;;;;;;;16.77;3.63;;;6.60;99.90;;;;;;4916739;29;20263;-78
2021/04/03 02:23:01;;;;;;;22.77;3.60;;;6.60;99.90;;;;;;4908470;29;20216;-77
2021/04/03 02:25:46;;;;;;;13.20;3.03;;;6.70;99.90;;;;;;4910948;29;20228;-76
2021/04/03 02:28:33;;;;;;;12.33;2.57;;;6.70;99.90;;;;;;4913358;29;20763;-77
2021/04/03 02:31:18;;;;;;;12.80;3.67;;;6.70;99.90;;;;;;4908747;29;20215;-77
2021/04/03 02:34:03;;;;;;;17.53;3.00;;;6.70;99.90;;;;;;4916940;29;20210;-77
2021/04/03 02:36:49;;;;;;;12.33;3.33;;;6.70;99.90;;;;;;4911246;29;20317;-77
2021/04/03 02:39:34;;;;;;;16.73;2.80;;;6.70;99.90;;;;;;4931498;29;20236;-79
2021/04/03 02:42:23;;;;;;;13.80;3.20;;;6.70;99.90;;;;;;4940526;29;20223;-79
2021/04/03 02:45:10;;;;;;;12.50;2.53;;;6.70;99.90;;;;;;4940144;29;20224;-81
2021/04/03 02:48:01;;;;;;;16.33;2.73;;;6.70;99.90;;;;;;4930362;29;20257;-78
2021/04/03 02:50:51;;;;;;;19.70;3.00;;;6.80;99.90;;;;;;4909875;29;20356;-78
2021/04/03 02:53:38;;;;;;;13.10;2.97;;;6.80;99.90;;;;;;4916147;29;20807;-78
2021/04/03 02:56:24;;;;;;;12.30;3.23;;;6.80;99.90;;;;;;4915944;29;20336;-77
2021/04/03 02:59:16;;;;;;;17.90;3.10;;;6.80;99.90;;;;;;4904336;29;20239;-77
2021/04/03 03:02:03;;;;;;;14.23;2.83;;;6.80;99.90;;;;;;4916879;29;20211;-77
2021/04/03 03:04:48;;;;;;;15.33;2.97;;;6.80;99.90;;;;;;4915811;29;20287;-78
2021/04/03 03:07:35;;;;;;;17.33;3.07;;;6.70;99.90;;;;;;4916258;29;20207;-77
2021/04/03 03:10:21;;;;;;;15.70;2.67;;;6.80;99.90;;;;;;4911678;29;20219;-78
2021/04/03 03:13:08;;;;;;;15.13;2.97;;;6.70;99.90;;;;;;4912702;29;20312;-78
2021/04/03 03:15:53;;;;;;;17.80;3.03;;;6.70;99.90;;;;;;4909935;29;20211;-77
2021/04/03 03:18:40;;;;;;;22.27;3.20;;;6.70;99.90;;;;;;4915238;29;20232;-77
2021/04/03 03:21:26;;;;;;;15.63;3.83;;;6.70;99.90;;;;;;4915265;29;20247;-77
2021/04/03 03:24:11;;;;;;;20.07;3.50;;;6.70;99.90;;;;;;4910475;29;20211;-78
2021/04/03 03:26:58;;;;;;;19.83;3.17;;;6.70;99.90;;;;;;4906936;29;20696;-77
2021/04/03 03:29:45;;;;;;;16.53;3.33;;;6.70;99.90;;;;;;4911152;29;20663;-77
2021/04/03 03:32:30;;;;;;;13.50;2.97;;;6.60;99.90;;;;;;4901723;29;20220;-77
2021/04/03 03:35:16;;;;;;;14.07;2.77;;;6.60;99.90;;;;;;4904831;29;20256;-77
2021/04/03 03:38:01;;;;;;;16.27;3.40;;;6.60;99.90;;;;;;4911323;29;20278;-78
2021/04/03 03:40:47;;;;;;;15.63;3.17;;;6.60;99.90;;;;;;4915222;29;20227;-77
2021/04/03 03:43:33;;;;;;;17.60;3.13;;;6.60;99.90;;;;;;4907890;29;20233;-78
2021/04/03 03:46:19;;;;;;;17.17;2.63;;;6.50;99.90;;;;;;4915566;29;20686;-77
2021/04/03 03:49:04;;;;;;;18.80;3.10;;;6.50;99.90;;;;;;4913791;29;20230;-77
2021/04/03 03:51:49;;;;;;;16.53;3.47;;;6.40;99.90;;;;;;4912655;29;20292;-76
2021/04/03 03:54:33;;;;;;;19.20;3.87;;;6.40;99.90;;;;;;4906031;29;20567;-75
2021/04/03 03:57:18;;;;;;;31.80;4.20;;;6.40;99.90;;;;;;4902171;29;20580;-75
2021/04/03 04:00:06;;;;;;;21.67;3.83;;;6.30;99.90;;;;;;4913187;29;20224;-76
2021/04/03 04:02:51;;;;;;;15.80;2.80;;;6.20;99.90;;;;;;4909430;29;20252;-76
2021/04/03 04:05:36;;;;;;;20.47;4.03;;;6.20;99.90;;;;;;4912282;29;20313;-75
2021/04/03 04:08:21;;;;;;;22.90;3.83;;;6.10;99.90;;;;;;4902876;29;20244;-76
2021/04/03 04:11:06;;;;;;;28.70;4.40;;;6.00;99.90;;;;;;4910808;29;20215;-75
2021/04/03 04:13:51;;;;;;;15.67;3.40;;;6.00;99.90;;;;;;4915522;29;20284;-77
2021/04/03 04:16:37;;;;;;;21.73;3.87;;;5.90;99.90;;;;;;4912705;29;20336;-75
2021/04/03 04:19:22;;;;;;;26.17;3.90;;;5.80;99.90;;;;;;4911436;29;20231;-76
2021/04/03 04:22:06;;;;;;;21.40;3.63;;;5.70;99.90;;;;;;4915298;29;20218;-75
2021/04/03 04:24:51;;;;;;;16.70;3.10;;;5.60;99.90;;;;;;4914596;29;20740;-76
2021/04/03 04:27:36;;;;;;;18.27;3.23;;;5.50;99.90;;;;;;4908772;29;20688;-76
2021/04/03 04:30:22;;;;;;;24.50;4.03;;;5.40;99.90;;;;;;4906028;29;20218;-77
2021/04/03 04:33:07;;;;;;;21.83;3.90;;;5.30;99.90;;;;;;4912833;29;20210;-76
2021/04/03 04:35:52;;;;;;;23.97;4.10;;;5.20;99.90;;;;;;4903441;29;20217;-77
2021/04/03 04:38:37;;;;;;;30.37;4.80;;;5.10;99.90;;;;;;4906741;29;20275;-76
2021/04/03 04:41:22;;;;;;;24.00;3.63;;;5.00;99.90;;;;;;4903967;29;20256;-76
2021/04/03 04:44:07;;;;;;;18.23;4.03;;;4.90;99.90;;;;;;4913569;29;20215;-77
2021/04/03 04:46:51;;;;;;;22.70;4.00;;;4.80;99.90;;;;;;4914352;29;20653;-75
2021/04/03 04:49:37;;;;;;;21.20;3.80;;;4.70;99.90;;;;;;4908135;29;20243;-78
2021/04/03 04:52:22;;;;;;;22.17;4.53;;;4.60;99.90;;;;;;4911602;29;20211;-77
2021/04/03 04:55:07;;;;;;;19.63;3.70;;;4.60;99.90;;;;;;4911082;29;20645;-77
2021/04/03 04:57:52;;;;;;;25.87;3.80;;;4.50;99.90;;;;;;4906304;29;20331;-77
2021/04/03 05:00:37;;;;;;;19.53;4.60;;;4.40;99.90;;;;;;4913427;29;20244;-76
2021/04/03 05:03:22;;;;;;;19.60;3.53;;;4.30;99.90;;;;;;4914850;29;20231;-75
2021/04/03 05:06:08;;;;;;;21.33;3.93;;;4.30;99.90;;;;;;4914216;29;20236;-77
2021/04/03 05:08:53;;;;;;;19.17;3.90;;;4.20;99.90;;;;;;4913747;29;20234;-77
2021/04/03 05:11:38;;;;;;;24.20;5.27;;;4.20;99.90;;;;;;4914657;29;20204;-77
2021/04/03 05:14:23;;;;;;;23.23;4.23;;;4.10;99.90;;;;;;4910792;29;20329;-77
2021/04/03 05:17:08;;;;;;;26.30;4.93;;;4.10;99.90;;;;;;4914668;29;20572;-76
2021/04/03 05:19:53;;;;;;;22.27;4.90;;;4.20;99.90;;;;;;4911059;29;20234;-77
2021/04/03 05:22:38;;;;;;;19.60;4.00;;;4.20;99.90;;;;;;4913450;29;20219;-76
2021/04/03 05:25:23;;;;;;;22.70;4.80;;;4.30;99.90;;;;;;4913997;29;20354;-77
2021/04/03 05:28:07;;;;;;;22.10;5.37;;;4.30;99.90;;;;;;4912624;29;20219;-76
2021/04/03 05:30:52;;;;;;;26.60;6.13;;;4.40;99.90;;;;;;4907455;29;20216;-77
2021/04/03 05:33:37;;;;;;;22.60;4.83;;;4.40;99.90;;;;;;4906759;29;20295;-77
2021/04/03 05:36:22;;;;;;;23.97;4.80;;;4.50;99.90;;;;;;4901742;29;20606;-77
2021/04/03 05:39:08;;;;;;;28.83;5.00;;;4.70;99.90;;;;;;4905000;29;20917;-76
2021/04/03 05:41:52;;;;;;;30.43;6.03;;;4.70;99.90;;;;;;4915106;29;20212;-76
2021/04/03 05:44:38;;;;;;;22.53;4.70;;;4.80;99.90;;;;;;4906630;29;20305;-77
2021/04/03 05:47:22;;;;;;;22.53;4.10;;;4.90;99.90;;;;;;4914763;29;20214;-78
2021/04/03 05:50:10;;;;;;;31.77;5.33;;;5.00;99.90;;;;;;4913860;29;20230;-78
2021/04/03 05:52:57;;;;;;;30.63;5.47;;;5.10;99.90;;;;;;4913264;29;20208;-77
2021/04/03 05:55:43;;;;;;;22.80;4.63;;;5.30;99.90;;;;;;4910108;29;20771;-77
2021/04/03 05:58:28;;;;;;;38.37;5.43;;;5.30;99.90;;;;;;4911168;29;20235;-78
2021/04/03 06:01:12;;;;;;;21.03;4.53;;;5.40;99.90;;;;;;4913847;29;20252;-77
2021/04/03 06:03:57;;;;;;;28.30;5.20;;;5.50;99.90;;;;;;4914655;29;20216;-76
2021/04/03 06:06:42;;;;;;;27.33;4.73;;;5.60;99.90;;;;;;4913759;29;20284;-78
2021/04/03 06:09:28;;;;;;;35.03;5.57;;;5.90;99.90;;;;;;4911703;29;20242;-77
2021/04/03 06:12:14;;;;;;;29.90;5.37;;;5.80;99.90;;;;;;4913214;29;20575;-77
2021/04/03 06:14:59;;;;;;;29.57;5.20;;;5.90;99.90;;;;;;4911095;29;20846;-77
2021/04/03 06:17:44;;;;;;;32.37;5.47;;;6.00;99.90;;;;;;4910930;29;20692;-76
2021/04/03 06:20:30;;;;;;;23.00;5.57;;;6.10;99.90;;;;;;4911503;29;20355;-77
2021/04/03 06:23:30;;;;;;;24.23;5.33;;;6.20;99.90;;;;;;4913169;29;20208;-77
2021/04/03 06:26:21;;;;;;;20.17;4.53;;;6.30;99.90;;;;;;4912105;29;20228;-78
2021/04/03 06:29:22;;;;;;;31.20;5.30;;;6.40;99.90;;;;;;4913997;29;20274;-78
2021/04/03 06:32:10;;;;;;;25.30;4.70;;;6.50;99.90;;;;;;4912483;29;20212;-78
2021/04/03 06:34:56;;;;;;;23.70;5.20;;;6.60;99.90;;;;;;4910403;29;20208;-77
2021/04/03 06:37:41;;;;;;;28.53;5.80;;;6.70;99.90;;;;;;4909934;29;20286;-77
2021/04/03 06:40:25;;;;;;;20.90;4.60;;;6.80;99.90;;;;;;4908770;29;20224;-77
2021/04/03 06:43:14;;;;;;;30.27;5.63;;;6.90;99.90;;;;;;4911502;29;20219;-76
2021/04/03 06:46:00;;;;;;;29.80;6.40;;;7.00;99.90;;;;;;4910992;29;20299;-77
2021/04/03 06:48:45;;;;;;;21.20;4.03;;;7.10;99.90;;;;;;4910482;29;20243;-77
2021/04/03 06:51:31;;;;;;;26.43;5.50;;;7.20;99.90;;;;;;4910311;29;20633;-77
2021/04/03 06:54:15;;;;;;;25.43;4.90;;;7.30;99.90;;;;;;4911118;29;20211;-79
2021/04/03 06:57:00;;;;;;;24.23;4.87;;;7.40;99.90;;;;;;4915338;29;20211;-77
2021/04/03 06:59:45;;;;;;;24.10;4.83;;;7.50;99.90;;;;;;4908118;29;20264;-78
2021/04/03 07:02:35;;;;;;;36.10;5.80;;;7.60;99.90;;;;;;4913891;29;20263;-76
2021/04/03 07:05:21;;;;;;;28.60;5.27;;;7.60;99.90;;;;;;4912508;29;20216;-78
2021/04/03 07:08:08;;;;;;;28.37;5.73;;;7.70;99.90;;;;;;4912969;29;20260;-77
2021/04/03 07:10:56;;;;;;;25.70;5.33;;;7.80;99.90;;;;;;4908569;29;20700;-77
2021/04/03 07:13:43;;;;;;;16.13;4.40;;;7.90;99.90;;;;;;4909798;29;20239;-77
2021/04/03 07:16:28;;;;;;;23.53;4.50;;;8.00;99.90;;;;;;4913654;29;20224;-78
2021/04/03 07:19:16;;;;;;;24.50;5.53;;;8.10;99.90;;;;;;4913310;29;20243;-77
2021/04/03 07:22:01;;;;;;;28.27;4.90;;;8.20;99.90;;;;;;4900580;29;20216;-76
2021/04/03 07:24:46;;;;;;;29.90;5.33;;;8.20;99.90;;;;;;4912124;29;20707;-77
2021/04/03 07:27:31;;;;;;;28.90;4.93;;;8.30;99.90;;;;;;4914641;29;20207;-77
2021/04/03 07:30:41;;;;;;;34.53;5.93;;;8.30;99.90;;;;;;4910355;29;20300;-78
2021/04/03 07:33:26;;;;;;;23.80;5.57;;;8.50;99.90;;;;;;4909725;29;20260;-77
2021/04/03 07:36:12;;;;;;;24.63;5.23;;;8.60;99.90;;;;;;4914053;29;20215;-78
2021/04/03 07:38:57;;;;;;;19.03;4.63;;;8.70;99.90;;;;;;4910161;29;20231;-77
2021/04/03 07:41:42;;;;;;;25.73;4.77;;;8.70;99.90;;;;;;4914491;29;20569;-76
2021/04/03 07:44:33;;;;;;;23.43;4.67;;;8.80;99.90;;;;;;4913017;29;20337;-77
2021/04/03 07:47:19;;;;;;;28.73;5.77;;;8.90;99.90;;;;;;4911162;29;20204;-77
2021/04/03 07:50:09;;;;;;;26.83;5.23;;;9.00;99.90;;;;;;4908296;29;21496;-77
2021/04/03 07:52:55;;;;;;;23.27;5.17;;;9.10;99.90;;;;;;4912426;29;20247;-77
2021/04/03 07:55:42;;;;;;;25.90;5.20;;;9.20;99.90;;;;;;4910635;29;20231;-77
2021/04/03 07:58:29;;;;;;;22.30;5.10;;;9.30;99.90;;;;;;4911349;29;20383;-77
2021/04/03 08:01:15;;;;;;;21.90;4.63;;;9.40;99.90;;;;;;4900627;29;20216;-77
2021/04/03 08:04:02;;;;;;;29.30;5.57;;;9.50;99.90;;;;;;4911179;29;20307;-77
2021/04/03 08:06:49;;;;;;;19.53;4.30;;;9.60;99.90;;;;;;4908861;29;20220;-77
2021/04/03 08:09:36;;;;;;;26.93;5.33;;;9.70;99.90;;;;;;4899189;29;20239;-77
2021/04/03 08:12:26;;;;;;;21.13;5.30;;;9.80;99.90;;;;;;4911792;29;20267;-77
2021/04/03 08:15:12;;;;;;;27.93;5.37;;;9.90;99.90;;;;;;4911924;29;20305;-77
2021/04/03 08:17:57;;;;;;;22.57;4.77;;;10.10;99.90;;;;;;4911371;29;20304;-77
2021/04/03 08:20:52;;;;;;;21.40;4.50;;;10.20;99.90;;;;;;4909659;29;20215;-77
2021/04/03 08:23:39;;;;;;;29.07;5.50;;;10.30;99.90;;;;;;4910822;29;20212;-77
2021/04/03 08:26:33;;;;;;;21.00;4.00;;;10.50;99.90;;;;;;4906594;29;20251;-77
2021/04/03 08:29:24;;;;;;;27.53;5.47;;;10.60;99.90;;;;;;4912451;29;20696;-77
2021/04/03 08:32:09;;;;;;;29.60;6.03;;;10.70;99.90;;;;;;4905992;29;20684;-77
2021/04/03 08:34:54;;;;;;;24.47;4.90;;;10.90;99.90;;;;;;4911360;29;20215;-77
2021/04/03 08:37:39;;;;;;;22.77;5.57;;;11.10;99.90;;;;;;4902951;29;20202;-77
2021/04/03 08:40:30;;;;;;;23.17;5.27;;;11.30;99.90;;;;;;4907493;29;20292;-78
2021/04/03 08:43:21;;;;;;;23.57;4.90;;;11.50;99.90;;;;;;4908445;29;20273;-78
2021/04/03 08:46:09;;;;;;;24.97;4.70;;;11.70;99.90;;;;;;4910424;29;20256;-78
2021/04/03 08:48:55;;;;;;;25.43;5.93;;;11.90;99.90;;;;;;4911586;29;20231;-78
2021/04/03 08:51:40;;;;;;;29.97;5.33;;;12.20;99.90;;;;;;4911740;29;20214;-78
2021/04/03 08:54:25;;;;;;;15.37;4.33;;;12.40;99.90;;;;;;4911930;29;20307;-78
2021/04/03 08:57:22;;;;;;;18.90;4.60;;;12.70;99.90;;;;;;4910931;29;20211;-78
2021/04/03 09:00:10;;;;;;;22.60;4.67;;;12.90;99.90;;;;;;4913062;29;20239;-78
2021/04/03 09:02:56;;;;;;;24.73;4.60;;;13.10;99.90;;;;;;4911111;29;20263;-78
2021/04/03 09:05:47;;;;;;;25.43;5.00;;;13.30;99.90;;;;;;4904208;29;20296;-78
2021/04/03 09:08:33;;;;;;;19.13;4.60;;;13.40;99.90;;;;;;4911055;29;20338;-78
2021/04/03 09:11:17;;;;;;;22.47;4.60;;;13.50;99.90;;;;;;4913968;29;20213;-78
2021/04/03 09:14:02;;;;;;;21.50;4.70;;;13.50;99.90;;;;;;4934894;29;20205;-79
2021/04/03 09:16:48;;;;;;;19.37;4.77;;;13.50;99.90;;;;;;4937624;29;20238;-78
2021/04/03 09:19:34;;;;;;;14.70;4.43;;;13.50;99.90;;;;;;4934460;29;20635;-78
2021/04/03 09:22:21;;;;;;;18.57;4.33;;;13.60;99.90;;;;;;4921838;29;20241;-78
2021/04/03 09:25:08;;;;;;;22.33;4.53;;;13.60;99.90;;;;;;4911848;29;20272;-78
2021/04/03 09:27:58;;;;;;;16.30;4.83;;;13.70;99.90;;;;;;4917278;29;20208;-78
2021/04/03 09:30:44;;;;;;;16.33;4.17;;;13.90;99.90;;;;;;4917529;29;20622;-79
2021/04/03 09:33:30;;;;;;;16.60;4.27;;;14.30;99.90;;;;;;4915378;29;20254;-77
2021/04/03 09:36:17;;;;;;;18.67;4.37;;;14.80;99.90;;;;;;4913998;29;20245;-77
2021/04/03 09:39:12;;;;;;;14.83;4.33;;;15.50;99.90;;;;;;4915890;29;20276;-78
2021/04/03 09:41:57;;;;;;;14.13;4.00;;;16.30;99.90;;;;;;4910964;29;20240;-78
2021/04/03 09:44:42;;;;;;;18.60;4.70;;;17.20;99.90;;;;;;4915153;29;20259;-78
2021/04/03 09:47:28;;;;;;;18.23;5.07;;;18.20;99.90;;;;;;4917416;29;20303;-78
2021/04/03 09:50:14;;;;;;;15.60;4.57;;;19.00;98.40;;;;;;4914638;29;20276;-78
2021/04/03 09:53:06;;;;;;;19.23;5.23;;;19.80;92.10;;;;;;4916563;29;20611;-78
2021/04/03 09:55:51;;;;;;;14.77;4.40;;;20.60;92.20;;;;;;4915887;29;20227;-78
2021/04/03 09:58:36;;;;;;;16.13;4.50;;;21.40;91.00;;;;;;4916319;29;20309;-78
2021/04/03 10:01:21;;;;;;;15.63;4.53;;;22.20;89.70;;;;;;4912711;29;20595;-78
2021/04/03 10:04:06;;;;;;;13.17;4.03;;;22.90;84.10;;;;;;4913994;29;20242;-79
2021/04/03 10:06:52;;;;;;;15.53;5.07;;;23.60;80.60;;;;;;4918015;29;20262;-79
2021/04/03 10:09:37;;;;;;;15.37;4.80;;;24.40;74.90;;;;;;4916070;29;20242;-79
2021/04/03 10:12:22;;;;;;;15.47;4.53;;;25.20;71.60;;;;;;4917203;29;20213;-78
2021/04/03 10:15:08;;;;;;;13.77;4.10;;;25.90;65.50;;;;;;4914689;29;20245;-79
2021/04/03 10:17:53;;;;;;;15.07;4.60;;;26.60;66.20;;;;;;4915823;29;20248;-79
2021/04/03 10:20:38;;;;;;;11.98;3.88;;;27.30;59.50;;;;;;4914821;29;20214;-79
2021/04/03 10:23:24;;;;;;;13.98;3.53;;;27.70;60.90;;;;;;4913336;29;20255;-79
2021/04/03 10:26:09;;;;;;;14.80;4.45;;;28.00;56.70;;;;;;4914257;29;20657;-77
2021/04/03 10:28:54;;;;;;;12.43;4.10;;;28.20;55.60;;;;;;4916845;29;20241;-78
2021/04/03 10:31:40;;;;;;;12.45;4.25;;;28.50;56.20;;;;;;4915670;29;20279;-78
2021/04/03 10:34:25;;;;;;;13.20;4.03;;;28.90;55.90;;;;;;4914631;29;20213;-78
2021/04/03 10:37:10;;;;;;;15.48;4.55;;;29.40;54.60;;;;;;4912923;29;20574;-77
2021/04/03 10:39:56;;;;;;;10.75;4.03;;;29.90;53.00;;;;;;4914117;29;20232;-77
2021/04/03 10:42:41;;;;;;;14.90;4.07;;;30.20;53.00;;;;;;4914878;29;20270;-77
2021/04/03 10:45:26;;;;;;;12.05;3.55;;;30.40;49.50;;;;;;4908279;29;20646;-77
2021/04/03 10:48:11;;;;;;;14.10;3.50;;;30.60;51.10;;;;;;4900981;29;20239;-77
2021/04/03 10:50:56;;;;;;;15.82;4.05;;;30.80;50.50;;;;;;4914275;29;20245;-77
2021/04/03 10:53:41;;;;;;;11.00;4.13;;;31.10;50.90;;;;;;4905318;29;20591;-78
2021/04/03 10:56:26;;;;;;;13.50;4.20;;;31.40;47.20;;;;;;4919825;29;20616;-77
2021/04/03 10:59:11;;;;;;;12.55;3.83;;;31.60;47.40;;;;;;4908365;29;20236;-77
2021/04/03 11:01:55;;;;;;;13.40;4.30;;;31.70;47.10;;;;;;4900460;29;20684;-77
2021/04/03 11:04:40;;;;;;;12.43;4.28;;;31.50;47.30;;;;;;4902076;29;20355;-77
2021/04/03 11:07:25;;;;;;;12.23;3.70;;;31.10;47.50;;;;;;4912710;29;20254;-77
2021/04/03 11:10:12;;;;;;;12.15;4.13;;;30.70;47.90;;;;;;4908368;29;20609;-76
2021/04/03 11:12:58;;;;;;;12.98;3.75;;;30.30;48.10;;;;;;4907692;29;20614;-77
2021/04/03 11:15:44;;;;;;;16.15;4.38;;;29.70;47.90;;;;;;4904904;29;20308;-78
2021/04/03 11:18:29;;;;;;;14.07;4.43;;;29.10;47.60;;;;;;4912521;29;20302;-78
2021/04/03 11:21:13;;;;;;;12.52;3.55;;;28.60;48.80;;;;;;4914466;29;20801;-79
2021/04/03 11:23:58;;;;;;;14.75;3.78;;;28.00;49.30;;;;;;4913770;29;20762;-79
2021/04/03 11:26:43;;;;;;;12.95;3.50;;;27.40;49.30;;;;;;4914809;29;20221;-80
2021/04/03 11:29:29;;;;;;;14.90;3.70;;;27.00;51.20;;;;;;4915700;29;20261;-79
2021/04/03 11:32:13;;;;;;;14.40;3.60;;;26.90;50.90;;;;;;4915297;29;20272;-80
2021/04/03 11:34:58;;;;;;;14.05;3.88;;;26.90;50.80;;;;;;4914707;29;20225;-79
2021/04/03 11:37:44;;;;;;;13.93;4.13;;;27.20;50.50;;;;;;4915882;29;20274;-78
2021/04/03 11:40:29;;;;;;;11.85;4.03;;;27.40;49.70;;;;;;4912123;29;20221;-79
2021/04/03 11:43:14;;;;;;;12.73;3.50;;;27.50;48.80;;;;;;4908390;29;20642;-78
2021/04/03 11:46:00;;;;;;;12.48;3.65;;;27.50;50.40;;;;;;4914935;29;20243;-79
2021/04/03 11:48:45;;;;;;;16.38;4.32;;;27.40;49.90;;;;;;4911811;29;20228;-79
2021/04/03 11:51:32;;;;;;;12.30;3.75;;;27.30;50.80;;;;;;4915023;29;20217;-80
2021/04/03 11:54:17;;;;;;;12.73;3.95;;;27.00;51.10;;;;;;4915869;29;20210;-79
2021/04/03 11:57:04;;;;;;;11.77;4.15;;;26.90;51.50;;;;;;4917117;29;20222;-78
2021/04/03 11:59:49;;;;;;;11.05;3.20;;;26.70;47.40;;;;;;4909066;29;20233;-79
2021/04/03 12:02:35;;;;;;;10.63;3.47;;;26.60;50.90;;;;;;4913197;29;20207;-79
2021/04/03 12:05:21;;;;;;;11.70;3.42;;;26.50;51.60;;;;;;4916184;29;20257;-79
2021/04/03 12:08:06;;;;;;;12.70;3.90;;;26.50;51.20;;;;;;4908331;29;20304;-79
2021/04/03 12:10:51;;;;;;;15.57;4.15;;;26.50;50.50;;;;;;4911088;29;20291;-80
2021/04/03 12:13:36;;;;;;;12.63;3.42;;;26.60;49.70;;;;;;4915521;29;20223;-80
2021/04/03 12:16:21;;;;;;;12.88;4.97;;;26.80;50.60;;;;;;4914221;29;20225;-79
2021/04/03 12:19:07;;;;;;;13.90;3.78;;;27.00;49.20;;;;;;4914147;29;20247;-79
2021/04/03 12:21:52;;;;;;;10.80;3.55;;;27.00;50.40;;;;;;4915586;29;20222;-79
2021/04/03 12:24:40;;;;;;;13.95;3.90;;;27.10;49.70;;;;;;4910773;29;20280;-79
2021/04/03 12:27:25;;;;;;;10.27;3.15;;;27.10;50.20;;;;;;4913121;29;20215;-82
2021/04/03 12:30:11;;;;;;;10.65;3.53;;;27.00;50.70;;;;;;4914121;29;20278;-79
2021/04/03 12:32:56;;;;;;;13.43;4.53;;;26.90;49.30;;;;;;4910127;29;20243;-80
2021/04/03 12:35:41;;;;;;;13.65;4.32;;;26.80;49.10;;;;;;4910820;29;20259;-79
2021/04/03 12:38:26;;;;;;;15.82;7.00;;;27.00;52.10;;;;;;4911017;29;20250;-79
2021/04/03 12:41:11;;;;;;;10.48;3.78;;;27.30;48.50;;;;;;4910539;29;20584;-77
2021/04/03 12:43:56;;;;;;;12.38;3.72;;;27.70;48.10;;;;;;4910808;29;20708;-77
2021/04/03 12:46:41;;;;;;;11.88;3.63;;;28.20;45.80;;;;;;4913547;29;20222;-79
2021/04/03 12:49:25;;;;;;;15.63;4.40;;;28.50;46.60;;;;;;4910067;29;20239;-79
2021/04/03 12:52:11;;;;;;;8.32;3.42;;;28.80;44.20;;;;;;4911196;29;20245;-78
2021/04/03 12:54:56;;;;;;;12.23;3.42;;;29.00;44.10;;;;;;4912066;29;20210;-79
2021/04/03 12:57:40;;;;;;;9.95;3.38;;;29.00;47.30;;;;;;4914611;29;20675;-79
2021/04/03 13:00:26;;;;;;;10.38;3.40;;;28.90;45.90;;;;;;4916440;29;20763;-80
2021/04/03 13:03:11;;;;;;;9.88;3.50;;;28.60;47.40;;;;;;4918108;29;20290;-80
2021/04/03 13:05:56;;;;;;;12.32;3.60;;;28.30;45.80;;;;;;4917550;29;20266;-80
2021/04/03 13:08:42;;;;;;;12.48;4.45;;;27.90;47.20;;;;;;4917819;29;20272;-80
2021/04/03 13:11:29;;;;;;;11.27;4.03;;;27.60;47.50;;;;;;4915908;29;20211;-80
2021/04/03 13:14:18;;;;;;;9.32;3.05;;;27.50;48.00;;;;;;4912941;29;20208;-80
2021/04/03 13:17:03;;;;;;;10.70;2.97;;;27.60;48.60;;;;;;4917965;29;20350;-80
2021/04/03 13:19:47;;;;;;;13.45;3.45;;;27.90;48.30;;;;;;4919126;29;20231;-80
2021/04/03 13:22:32;;;;;;;11.00;3.50;;;28.30;47.50;;;;;;4916478;29;20300;-80
2021/04/03 13:25:18;;;;;;;13.25;3.85;;;28.80;46.20;;;;;;4917785;29;20220;-80
2021/04/03 13:28:03;;;;;;;9.70;3.10;;;29.30;46.90;;;;;;4913216;29;20222;-80
2021/04/03 13:30:49;;;;;;;15.65;4.25;;;29.60;47.00;;;;;;4914627;29;20298;-80
2021/04/03 13:33:33;;;;;;;10.18;4.00;;;29.70;46.30;;;;;;4913251;29;20742;-80
2021/04/03 13:36:19;;;;;;;12.65;4.00;;;29.70;46.70;;;;;;4915097;29;20231;-81
2021/04/03 13:39:04;;;;;;;10.80;3.38;;;29.50;44.80;;;;;;4914241;29;20373;-80
2021/04/03 13:41:49;;;;;;;14.73;4.43;;;29.20;45.30;;;;;;4914269;29;20267;-81
2021/04/03 13:44:34;;;;;;;13.07;3.45;;;28.90;45.00;;;;;;4915808;29;20771;-79
2021/04/03 13:47:19;;;;;;;14.93;3.83;;;28.70;46.20;;;;;;4915742;29;20828;-80
2021/04/03 13:50:05;;;;;;;8.80;3.22;;;28.60;45.30;;;;;;4915839;29;20795;-80
2021/04/03 13:52:50;;;;;;;12.38;3.03;;;28.40;46.00;;;;;;4914852;29;20696;-80
2021/04/03 13:55:35;;;;;;;12.63;3.67;;;28.30;46.40;;;;;;4918219;29;20235;-79
2021/04/03 13:58:22;;;;;;;11.98;3.47;;;28.10;46.40;;;;;;4917127;29;20303;-80
2021/04/03 14:01:07;;;;;;;11.10;3.58;;;27.80;46.40;;;;;;4913968;29;20217;-80
2021/04/03 14:03:51;;;;;;;10.38;3.40;;;27.40;47.30;;;;;;4915901;29;20684;-80
2021/04/03 14:06:36;;;;;;;12.73;3.20;;;27.00;47.70;;;;;;4916220;29;20225;-80
2021/04/03 14:09:21;;;;;;;10.43;3.50;;;26.80;48.40;;;;;;4917331;29;20275;-79
2021/04/03 14:12:07;;;;;;;11.07;3.45;;;26.70;48.50;;;;;;4916196;29;20716;-80
2021/04/03 14:14:53;;;;;;;11.55;3.30;;;26.60;48.00;;;;;;4915927;29;20214;-80
2021/04/03 14:17:38;;;;;;;13.35;3.38;;;26.50;48.00;;;;;;4917946;29;20351;-79
2021/04/03 14:20:23;;;;;;;12.45;3.65;;;26.30;49.40;;;;;;4916689;29;20254;-80